Westerly, RI

10:51 PM EDT on October 20, 2014 (GMT -0400)
APRSWXNET Westerly RI US | Change Station
CLOSE
Current Station
Personal Weather Station
Location: Pawcatuck, CT
Elevation: 209 ft
Nearby Weather Stations

Elev 209 ft 41.39 °N, 71.81 °W | Updated 55 minutes ago

Clear
Clear
49 °F
Feels Like 49 °F
N
0
Wind Variable Wind from NW
Gusts 7.0 mph

Today
High -- | Low -- °F
--% Chance of Precip.
Yesterday
High -- | Low -- °F
Precip. -- in
7:04 AM 5:58 PM
Waning Crescent, 8% visible
Pressure 30.01 in
Visibility 10.0 miles
Clouds Clear
Windchill 49 °F
Dew Point 44 °F
Humidity 84%
Rainfall 0.00 in
Snow Depth Not available.
UV 0 out of 12
Pollen 1.20 out of 12
Ozone Good
Flu Activity No Activity
METAR KWST 210153Z AUTO 22005KT 10SM CLR 14/07 A3001 RMK AO2 SLP163 T01390072

More Conditions Fewer Conditions

Pressure 30.01 in
Visibility 10.0 miles
Clouds Clear
Windchill 49 °F
Dew Point 44 °F
Humidity 84%
Rainfall 0.00 in
Snow Depth Not available.
UV 0 out of 12
Pollen 1.20 out of 12
Ozone Good
Flu Activity No Activity
METAR KWST 210153Z AUTO 22005KT 10SM CLR 14/07 A3001 RMK AO2 SLP163 T01390072

More Conditions Fewer Conditions

10-Day Weather Forecast

Almanac

Astronomy

Oct. 20, 2014 Rise Set
Actual Time 7:04 AM EDT 5:58 PM EDT
Civil Twilight 6:36 AM EDT 6:26 PM EDT
Nautical Twilight 6:04 AM EDT 6:58 PM EDT
Astronomical Twilight 5:32 AM EDT 7:30 PM EDT
Moon 3:48 AM EDT (10/20) 4:21 PM EDT (10/20)
Length of Visible Light 11h 50m
Length of Day
10h 54m
Tomorrow will be 2m 38s shorter.
Waning Crescent, 8% of the Moon is Illuminated
Today
Waning Crescent
Oct 23
New
Oct 30
First Quarter
Nov 6
Full
Nov 14
Last Quarter

Today's Extremes

State Highs State Lows

Community

WunderPhotos

Upload Photos

1,763,580 photos uploaded!

Nearby

Air Quality

  Air Quality AQ Index Pollutant
Yesterday Good
OZONE
Yesterday Good
PM2.5
Current Good
OZONE
Monday Good
OZONE
Monday Good
PM2.5
Tuesday Good
OZONE
Tuesday Good
PM2.5
Wednesday Good
OZONE
Wednesday Good
PM2.5
Thursday Good
OZONE
Thursday Good
PM2.5
Friday Good
OZONE
Friday Good
PM2.5

Snow Depth

Station Depth Elevation
No new snow has been reported.

Earthquake Activity

City Distance Mag. Time & Date
No recent earthquake activity has been reported nearby.
Minimum magnitude displayed is 2.5.

Coastal Water Temperatures

Place Temperature
Newport, RI 60.1 °F
New London, CT 63.0 °F
Quonset Point, RI 62.1 °F

Nearby Weather Stations